sensor_id;sensor_type;location;lat;lon;timestamp;P1;durP1;ratioP1;P2;durP2;ratioP2
62179;SDS011;48172;53.374;10.722;2022-11-15T00:00:54;25.73;;;18.63;;
62179;SDS011;48172;53.374;10.722;2022-11-15T00:03:22;23.58;;;17.58;;
62179;SDS011;48172;53.374;10.722;2022-11-15T00:05:50;24.73;;;18.17;;
62179;SDS011;48172;53.374;10.722;2022-11-15T00:08:17;22.77;;;17.35;;
62179;SDS011;48172;53.374;10.722;2022-11-15T00:11:02;23.35;;;17.40;;
62179;SDS011;48172;53.374;10.722;2022-11-15T00:13:29;23.95;;;17.85;;
62179;SDS011;48172;53.374;10.722;2022-11-15T00:15:57;21.55;;;17.48;;
62179;SDS011;48172;53.374;10.722;2022-11-15T00:18:28;22.67;;;17.38;;
62179;SDS011;48172;53.374;10.722;2022-11-15T00:20:56;22.05;;;16.88;;
62179;SDS011;48172;53.374;10.722;2022-11-15T00:23:28;22.90;;;16.88;;
62179;SDS011;48172;53.374;10.722;2022-11-15T00:25:56;21.50;;;16.88;;
62179;SDS011;48172;53.374;10.722;2022-11-15T00:28:26;22.00;;;16.45;;
62179;SDS011;48172;53.374;10.722;2022-11-15T00:30:53;20.67;;;16.98;;
62179;SDS011;48172;53.374;10.722;2022-11-15T00:33:25;20.63;;;16.33;;
62179;SDS011;48172;53.374;10.722;2022-11-15T00:35:51;20.88;;;16.25;;
62179;SDS011;48172;53.374;10.722;2022-11-15T00:38:18;21.27;;;16.00;;
62179;SDS011;48172;53.374;10.722;2022-11-15T00:40:44;20.20;;;15.98;;
62179;SDS011;48172;53.374;10.722;2022-11-15T00:43:11;19.92;;;15.57;;
62179;SDS011;48172;53.374;10.722;2022-11-15T00:45:37;19.90;;;15.57;;
62179;SDS011;48172;53.374;10.722;2022-11-15T00:48:04;20.33;;;16.25;;
62179;SDS011;48172;53.374;10.722;2022-11-15T00:50:31;21.33;;;15.45;;
62179;SDS011;48172;53.374;10.722;2022-11-15T00:52:57;20.10;;;15.98;;
62179;SDS011;48172;53.374;10.722;2022-11-15T00:55:24;18.77;;;14.57;;
62179;SDS011;48172;53.374;10.722;2022-11-15T00:57:50;19.17;;;14.70;;
62179;SDS011;48172;53.374;10.722;2022-11-15T01:00:17;19.70;;;15.07;;
62179;SDS011;48172;53.374;10.722;2022-11-15T01:02:44;19.58;;;15.65;;
62179;SDS011;48172;53.374;10.722;2022-11-15T01:05:10;19.20;;;15.15;;
62179;SDS011;48172;53.374;10.722;2022-11-15T01:07:37;18.98;;;15.07;;
62179;SDS011;48172;53.374;10.722;2022-11-15T01:10:04;17.92;;;14.45;;
62179;SDS011;48172;53.374;10.722;2022-11-15T01:12:31;17.33;;;13.80;;
62179;SDS011;48172;53.374;10.722;2022-11-15T01:14:58;17.40;;;14.23;;
62179;SDS011;48172;53.374;10.722;2022-11-15T01:17:24;17.30;;;13.52;;
62179;SDS011;48172;53.374;10.722;2022-11-15T01:19:51;19.00;;;14.73;;
62179;SDS011;48172;53.374;10.722;2022-11-15T01:22:18;18.65;;;13.98;;
62179;SDS011;48172;53.374;10.722;2022-11-15T01:24:44;17.75;;;14.07;;
62179;SDS011;48172;53.374;10.722;2022-11-15T01:27:11;17.60;;;13.27;;
62179;SDS011;48172;53.374;10.722;2022-11-15T01:29:37;17.25;;;13.88;;
62179;SDS011;48172;53.374;10.722;2022-11-15T01:32:04;17.27;;;13.90;;
62179;SDS011;48172;53.374;10.722;2022-11-15T01:34:30;17.10;;;12.98;;
62179;SDS011;48172;53.374;10.722;2022-11-15T01:36:57;16.45;;;13.80;;
62179;SDS011;48172;53.374;10.722;2022-11-15T01:39:26;17.38;;;13.38;;
62179;SDS011;48172;53.374;10.722;2022-11-15T01:41:53;15.93;;;12.38;;
62179;SDS011;48172;53.374;10.722;2022-11-15T01:49:57;17.05;;;13.55;;
62179;SDS011;48172;53.374;10.722;2022-11-15T01:52:27;15.68;;;12.23;;
62179;SDS011;48172;53.374;10.722;2022-11-15T01:57:37;14.85;;;11.60;;
62179;SDS011;48172;53.374;10.722;2022-11-15T02:00:05;15.82;;;12.07;;
62179;SDS011;48172;53.374;10.722;2022-11-15T02:02:33;15.20;;;12.10;;
62179;SDS011;48172;53.374;10.722;2022-11-15T02:05:01;15.13;;;12.23;;
62179;SDS011;48172;53.374;10.722;2022-11-15T02:07:28;14.57;;;12.05;;
62179;SDS011;48172;53.374;10.722;2022-11-15T02:10:02;15.32;;;12.38;;
62179;SDS011;48172;53.374;10.722;2022-11-15T02:12:34;14.85;;;12.32;;
62179;SDS011;48172;53.374;10.722;2022-11-15T02:15:01;14.05;;;11.77;;
62179;SDS011;48172;53.374;10.722;2022-11-15T02:42:38;12.45;;;10.60;;
62179;SDS011;48172;53.374;10.722;2022-11-15T02:45:35;12.40;;;10.60;;
62179;SDS011;48172;53.374;10.722;2022-11-15T02:48:06;14.57;;;11.73;;
62179;SDS011;48172;53.374;10.722;2022-11-15T02:50:35;13.40;;;10.48;;
62179;SDS011;48172;53.374;10.722;2022-11-15T02:53:02;12.40;;;10.75;;
62179;SDS011;48172;53.374;10.722;2022-11-15T03:00:37;13.95;;;10.57;;
62179;SDS011;48172;53.374;10.722;2022-11-15T03:03:17;10.95;;;9.80;;
62179;SDS011;48172;53.374;10.722;2022-11-15T03:11:13;11.93;;;10.05;;
62179;SDS011;48172;53.374;10.722;2022-11-15T03:13:58;11.75;;;10.23;;
62179;SDS011;48172;53.374;10.722;2022-11-15T03:16:40;9.98;;;8.93;;
62179;SDS011;48172;53.374;10.722;2022-11-15T03:22:02;11.55;;;9.95;;
62179;SDS011;48172;53.374;10.722;2022-11-15T03:24:33;12.18;;;10.32;;
62179;SDS011;48172;53.374;10.722;2022-11-15T03:27:02;12.90;;;10.73;;
62179;SDS011;48172;53.374;10.722;2022-11-15T03:29:33;11.77;;;9.68;;
62179;SDS011;48172;53.374;10.722;2022-11-15T03:32:03;11.88;;;10.23;;
62179;SDS011;48172;53.374;10.722;2022-11-15T03:37:17;10.52;;;9.43;;
62179;SDS011;48172;53.374;10.722;2022-11-15T03:39:48;10.48;;;9.20;;
62179;SDS011;48172;53.374;10.722;2022-11-15T03:45:07;11.57;;;9.77;;
62179;SDS011;48172;53.374;10.722;2022-11-15T03:47:41;11.40;;;9.95;;
62179;SDS011;48172;53.374;10.722;2022-11-15T03:50:16;10.30;;;9.02;;
62179;SDS011;48172;53.374;10.722;2022-11-15T03:52:45;10.13;;;8.80;;
62179;SDS011;48172;53.374;10.722;2022-11-15T03:55:18;11.20;;;8.85;;
62179;SDS011;48172;53.374;10.722;2022-11-15T03:57:50;10.70;;;8.83;;
62179;SDS011;48172;53.374;10.722;2022-11-15T04:00:20;9.90;;;8.85;;
62179;SDS011;48172;53.374;10.722;2022-11-15T04:02:47;10.85;;;8.52;;
62179;SDS011;48172;53.374;10.722;2022-11-15T04:05:13;10.45;;;9.07;;
62179;SDS011;48172;53.374;10.722;2022-11-15T04:07:40;10.25;;;8.85;;
62179;SDS011;48172;53.374;10.722;2022-11-15T04:10:08;9.00;;;7.85;;
62179;SDS011;48172;53.374;10.722;2022-11-15T04:12:37;10.75;;;8.93;;
62179;SDS011;48172;53.374;10.722;2022-11-15T04:15:07;10.57;;;9.05;;
62179;SDS011;48172;53.374;10.722;2022-11-15T04:17:40;9.63;;;8.63;;
62179;SDS011;48172;53.374;10.722;2022-11-15T04:20:14;10.63;;;8.80;;
62179;SDS011;48172;53.374;10.722;2022-11-15T04:23:02;10.55;;;8.75;;
62179;SDS011;48172;53.374;10.722;2022-11-15T04:25:49;9.98;;;8.65;;
62179;SDS011;48172;53.374;10.722;2022-11-15T04:28:18;10.38;;;8.35;;
62179;SDS011;48172;53.374;10.722;2022-11-15T04:30:45;9.45;;;8.30;;
62179;SDS011;48172;53.374;10.722;2022-11-15T04:33:11;9.48;;;8.43;;
62179;SDS011;48172;53.374;10.722;2022-11-15T04:35:38;10.43;;;8.35;;
62179;SDS011;48172;53.374;10.722;2022-11-15T04:38:05;9.30;;;7.72;;
62179;SDS011;48172;53.374;10.722;2022-11-15T04:40:33;9.35;;;8.15;;
62179;SDS011;48172;53.374;10.722;2022-11-15T04:43:00;9.25;;;8.25;;
62179;SDS011;48172;53.374;10.722;2022-11-15T04:45:29;9.65;;;7.95;;
62179;SDS011;48172;53.374;10.722;2022-11-15T04:47:56;8.93;;;7.75;;
62179;SDS011;48172;53.374;10.722;2022-11-15T04:50:23;9.52;;;8.48;;
62179;SDS011;48172;53.374;10.722;2022-11-15T04:52:51;9.35;;;8.38;;
62179;SDS011;48172;53.374;10.722;2022-11-15T04:55:19;9.35;;;8.43;;
62179;SDS011;48172;53.374;10.722;2022-11-15T04:57:46;9.18;;;8.27;;
62179;SDS011;48172;53.374;10.722;2022-11-15T05:00:14;9.75;;;7.95;;
62179;SDS011;48172;53.374;10.722;2022-11-15T05:02:42;9.30;;;8.27;;
62179;SDS011;48172;53.374;10.722;2022-11-15T05:05:27;8.73;;;7.82;;
62179;SDS011;48172;53.374;10.722;2022-11-15T05:07:54;9.98;;;7.82;;
62179;SDS011;48172;53.374;10.722;2022-11-15T05:10:21;10.00;;;8.20;;
62179;SDS011;48172;53.374;10.722;2022-11-15T05:12:47;9.52;;;8.25;;
62179;SDS011;48172;53.374;10.722;2022-11-15T05:15:14;9.32;;;7.90;;
62179;SDS011;48172;53.374;10.722;2022-11-15T05:17:41;8.60;;;7.72;;
62179;SDS011;48172;53.374;10.722;2022-11-15T05:20:07;8.25;;;7.38;;
62179;SDS011;48172;53.374;10.722;2022-11-15T05:22:34;8.70;;;7.80;;
62179;SDS011;48172;53.374;10.722;2022-11-15T05:25:01;8.93;;;7.90;;
62179;SDS011;48172;53.374;10.722;2022-11-15T05:27:27;9.05;;;7.88;;
62179;SDS011;48172;53.374;10.722;2022-11-15T05:29:55;8.43;;;7.40;;
62179;SDS011;48172;53.374;10.722;2022-11-15T05:32:21;8.80;;;7.90;;
62179;SDS011;48172;53.374;10.722;2022-11-15T05:34:48;8.55;;;7.65;;
62179;SDS011;48172;53.374;10.722;2022-11-15T05:37:15;8.40;;;7.57;;
62179;SDS011;48172;53.374;10.722;2022-11-15T05:39:42;8.05;;;7.05;;
62179;SDS011;48172;53.374;10.722;2022-11-15T05:42:12;8.48;;;7.10;;
62179;SDS011;48172;53.374;10.722;2022-11-15T05:44:44;7.97;;;7.15;;
62179;SDS011;48172;53.374;10.722;2022-11-15T05:47:16;7.82;;;6.85;;
62179;SDS011;48172;53.374;10.722;2022-11-15T05:49:46;7.88;;;6.97;;
62179;SDS011;48172;53.374;10.722;2022-11-15T05:52:16;8.18;;;6.70;;
62179;SDS011;48172;53.374;10.722;2022-11-15T05:54:46;8.77;;;7.28;;
62179;SDS011;48172;53.374;10.722;2022-11-15T05:57:13;8.57;;;7.50;;
62179;SDS011;48172;53.374;10.722;2022-11-15T05:59:40;7.60;;;6.80;;
62179;SDS011;48172;53.374;10.722;2022-11-15T06:02:09;8.02;;;7.03;;
62179;SDS011;48172;53.374;10.722;2022-11-15T06:04:37;8.10;;;6.97;;
62179;SDS011;48172;53.374;10.722;2022-11-15T06:07:03;7.35;;;6.63;;
62179;SDS011;48172;53.374;10.722;2022-11-15T06:09:30;7.47;;;6.38;;
62179;SDS011;48172;53.374;10.722;2022-11-15T06:11:56;7.50;;;6.65;;
62179;SDS011;48172;53.374;10.722;2022-11-15T06:14:24;7.88;;;6.70;;
62179;SDS011;48172;53.374;10.722;2022-11-15T06:16:50;7.68;;;6.88;;
62179;SDS011;48172;53.374;10.722;2022-11-15T06:19:17;6.85;;;6.13;;
62179;SDS011;48172;53.374;10.722;2022-11-15T06:21:43;8.25;;;7.28;;
62179;SDS011;48172;53.374;10.722;2022-11-15T06:24:10;6.38;;;5.78;;
62179;SDS011;48172;53.374;10.722;2022-11-15T06:26:36;7.95;;;5.95;;
62179;SDS011;48172;53.374;10.722;2022-11-15T06:29:03;6.75;;;6.05;;
62179;SDS011;48172;53.374;10.722;2022-11-15T06:31:30;7.28;;;6.28;;
62179;SDS011;48172;53.374;10.722;2022-11-15T06:33:57;7.50;;;6.45;;
62179;SDS011;48172;53.374;10.722;2022-11-15T06:36:23;6.30;;;5.63;;
62179;SDS011;48172;53.374;10.722;2022-11-15T06:38:50;6.40;;;5.75;;
62179;SDS011;48172;53.374;10.722;2022-11-15T06:41:17;7.45;;;6.65;;
62179;SDS011;48172;53.374;10.722;2022-11-15T06:43:43;7.90;;;5.93;;
62179;SDS011;48172;53.374;10.722;2022-11-15T06:46:10;6.28;;;5.63;;
62179;SDS011;48172;53.374;10.722;2022-11-15T06:48:37;6.50;;;5.80;;
62179;SDS011;48172;53.374;10.722;2022-11-15T06:51:04;6.38;;;5.72;;
62179;SDS011;48172;53.374;10.722;2022-11-15T06:53:31;5.93;;;5.32;;
62179;SDS011;48172;53.374;10.722;2022-11-15T06:55:59;6.90;;;5.55;;
62179;SDS011;48172;53.374;10.722;2022-11-15T06:58:27;6.07;;;5.47;;
62179;SDS011;48172;53.374;10.722;2022-11-15T07:00:57;6.13;;;5.38;;
62179;SDS011;48172;53.374;10.722;2022-11-15T07:03:24;6.10;;;5.45;;
62179;SDS011;48172;53.374;10.722;2022-11-15T07:05:52;6.53;;;5.57;;
62179;SDS011;48172;53.374;10.722;2022-11-15T07:08:21;6.32;;;5.45;;
62179;SDS011;48172;53.374;10.722;2022-11-15T07:10:48;6.38;;;5.50;;
62179;SDS011;48172;53.374;10.722;2022-11-15T07:13:15;6.10;;;5.50;;
62179;SDS011;48172;53.374;10.722;2022-11-15T07:15:42;5.72;;;5.07;;
62179;SDS011;48172;53.374;10.722;2022-11-15T07:18:08;6.10;;;5.50;;
62179;SDS011;48172;53.374;10.722;2022-11-15T07:20:35;6.15;;;5.47;;
62179;SDS011;48172;53.374;10.722;2022-11-15T07:23:02;5.93;;;5.28;;
62179;SDS011;48172;53.374;10.722;2022-11-15T07:25:30;5.97;;;5.30;;
62179;SDS011;48172;53.374;10.722;2022-11-15T07:27:57;5.95;;;5.28;;
62179;SDS011;48172;53.374;10.722;2022-11-15T07:30:24;6.50;;;5.90;;
62179;SDS011;48172;53.374;10.722;2022-11-15T07:32:59;5.65;;;5.05;;
62179;SDS011;48172;53.374;10.722;2022-11-15T07:35:26;5.95;;;5.35;;
62179;SDS011;48172;53.374;10.722;2022-11-15T07:37:55;6.32;;;5.72;;
62179;SDS011;48172;53.374;10.722;2022-11-15T07:40:27;5.32;;;4.82;;
62179;SDS011;48172;53.374;10.722;2022-11-15T07:43:02;5.72;;;5.13;;
62179;SDS011;48172;53.374;10.722;2022-11-15T07:45:30;5.97;;;5.38;;
62179;SDS011;48172;53.374;10.722;2022-11-15T07:47:57;5.75;;;5.15;;
62179;SDS011;48172;53.374;10.722;2022-11-15T07:50:23;5.70;;;4.97;;
62179;SDS011;48172;53.374;10.722;2022-11-15T07:52:54;5.95;;;5.13;;
62179;SDS011;48172;53.374;10.722;2022-11-15T07:55:24;5.90;;;5.18;;
62179;SDS011;48172;53.374;10.722;2022-11-15T07:57:53;5.35;;;4.75;;
62179;SDS011;48172;53.374;10.722;2022-11-15T08:00:25;6.43;;;5.80;;
62179;SDS011;48172;53.374;10.722;2022-11-15T08:02:52;6.10;;;5.50;;
62179;SDS011;48172;53.374;10.722;2022-11-15T08:05:18;6.47;;;5.00;;
62179;SDS011;48172;53.374;10.722;2022-11-15T08:07:45;5.68;;;5.07;;
62179;SDS011;48172;53.374;10.722;2022-11-15T08:10:11;5.70;;;5.15;;
62179;SDS011;48172;53.374;10.722;2022-11-15T08:12:38;5.80;;;5.20;;
62179;SDS011;48172;53.374;10.722;2022-11-15T08:15:05;6.32;;;5.35;;
62179;SDS011;48172;53.374;10.722;2022-11-15T08:17:32;6.13;;;5.63;;
62179;SDS011;48172;53.374;10.722;2022-11-15T08:20:00;6.45;;;5.15;;
62179;SDS011;48172;53.374;10.722;2022-11-15T08:22:26;39.42;;;33.30;;
62179;SDS011;48172;53.374;10.722;2022-11-15T08:24:53;79.32;;;55.20;;
62179;SDS011;48172;53.374;10.722;2022-11-15T08:27:19;117.57;;;68.63;;
62179;SDS011;48172;53.374;10.722;2022-11-15T08:29:47;139.60;;;87.40;;
62179;SDS011;48172;53.374;10.722;2022-11-15T08:32:14;195.10;;;116.07;;
62179;SDS011;48172;53.374;10.722;2022-11-15T08:34:41;251.18;;;156.82;;
62179;SDS011;48172;53.374;10.722;2022-11-15T08:37:08;273.73;;;164.88;;
62179;SDS011;48172;53.374;10.722;2022-11-15T08:39:34;291.80;;;175.13;;
62179;SDS011;48172;53.374;10.722;2022-11-15T08:42:01;354.67;;;210.55;;
62179;SDS011;48172;53.374;10.722;2022-11-15T08:44:27;390.88;;;233.18;;
62179;SDS011;48172;53.374;10.722;2022-11-15T08:46:54;411.98;;;246.57;;
62179;SDS011;48172;53.374;10.722;2022-11-15T08:49:20;448.10;;;262.85;;
62179;SDS011;48172;53.374;10.722;2022-11-15T08:51:47;433.00;;;256.52;;
62179;SDS011;48172;53.374;10.722;2022-11-15T08:54:13;463.45;;;274.58;;
62179;SDS011;48172;53.374;10.722;2022-11-15T08:56:40;383.13;;;239.10;;
62179;SDS011;48172;53.374;10.722;2022-11-15T08:59:07;357.83;;;227.48;;
62179;SDS011;48172;53.374;10.722;2022-11-15T09:01:33;365.85;;;231.27;;
62179;SDS011;48172;53.374;10.722;2022-11-15T09:04:00;359.55;;;229.98;;
62179;SDS011;48172;53.374;10.722;2022-11-15T09:06:27;353.33;;;224.18;;
62179;SDS011;48172;53.374;10.722;2022-11-15T09:08:53;357.65;;;227.70;;
62179;SDS011;48172;53.374;10.722;2022-11-15T09:11:20;346.33;;;224.23;;
62179;SDS011;48172;53.374;10.722;2022-11-15T09:13:48;338.23;;;217.80;;
62179;SDS011;48172;53.374;10.722;2022-11-15T09:16:15;336.02;;;219.52;;
62179;SDS011;48172;53.374;10.722;2022-11-15T09:18:42;325.00;;;216.18;;
62179;SDS011;48172;53.374;10.722;2022-11-15T09:21:09;324.23;;;210.48;;
62179;SDS011;48172;53.374;10.722;2022-11-15T09:23:36;316.05;;;209.73;;
62179;SDS011;48172;53.374;10.722;2022-11-15T09:26:03;315.75;;;208.25;;
62179;SDS011;48172;53.374;10.722;2022-11-15T09:28:31;309.73;;;203.70;;
62179;SDS011;48172;53.374;10.722;2022-11-15T09:31:00;298.30;;;201.27;;
62179;SDS011;48172;53.374;10.722;2022-11-15T09:33:28;294.60;;;199.05;;
62179;SDS011;48172;53.374;10.722;2022-11-15T09:36:03;290.77;;;200.68;;
62179;SDS011;48172;53.374;10.722;2022-11-15T09:38:32;287.42;;;193.02;;
62179;SDS011;48172;53.374;10.722;2022-11-15T09:43:54;279.25;;;188.02;;
62179;SDS011;48172;53.374;10.722;2022-11-15T09:48:57;276.63;;;184.18;;
62179;SDS011;48172;53.374;10.722;2022-11-15T09:52:09;270.55;;;178.80;;
62179;SDS011;48172;53.374;10.722;2022-11-15T10:03:09;255.43;;;167.63;;
62179;SDS011;48172;53.374;10.722;2022-11-15T10:05:49;251.40;;;166.77;;
62179;SDS011;48172;53.374;10.722;2022-11-15T10:11:16;234.95;;;155.25;;
62179;SDS011;48172;53.374;10.722;2022-11-15T10:14:24;240.20;;;157.57;;
62179;SDS011;48172;53.374;10.722;2022-11-15T10:19:38;231.40;;;157.80;;
62179;SDS011;48172;53.374;10.722;2022-11-15T10:25:25;228.40;;;154.98;;
62179;SDS011;48172;53.374;10.722;2022-11-15T10:30:35;231.23;;;156.27;;
62179;SDS011;48172;53.374;10.722;2022-11-15T10:33:26;227.13;;;153.70;;
62179;SDS011;48172;53.374;10.722;2022-11-15T10:38:50;224.40;;;151.15;;
62179;SDS011;48172;53.374;10.722;2022-11-15T10:43:46;217.75;;;146.55;;
62179;SDS011;48172;53.374;10.722;2022-11-15T10:46:37;211.50;;;143.65;;
62179;SDS011;48172;53.374;10.722;2022-11-15T10:51:57;207.80;;;143.65;;
62179;SDS011;48172;53.374;10.722;2022-11-15T10:54:42;206.02;;;142.77;;
62179;SDS011;48172;53.374;10.722;2022-11-15T10:57:30;203.68;;;140.50;;
62179;SDS011;48172;53.374;10.722;2022-11-15T11:00:03;194.18;;;134.73;;
62179;SDS011;48172;53.374;10.722;2022-11-15T11:02:38;189.77;;;130.88;;
62179;SDS011;48172;53.374;10.722;2022-11-15T11:10:37;178.98;;;125.88;;
62179;SDS011;48172;53.374;10.722;2022-11-15T11:13:25;170.68;;;118.47;;
62179;SDS011;48172;53.374;10.722;2022-11-15T11:18:38;164.57;;;115.15;;
62179;SDS011;48172;53.374;10.722;2022-11-15T11:22:17;160.00;;;113.60;;
62179;SDS011;48172;53.374;10.722;2022-11-15T11:41:10;143.75;;;102.82;;
62179;SDS011;48172;53.374;10.722;2022-11-15T11:49:21;139.82;;;98.70;;
62179;SDS011;48172;53.374;10.722;2022-11-15T11:52:00;136.82;;;98.03;;
62179;SDS011;48172;53.374;10.722;2022-11-15T11:54:38;129.55;;;94.13;;
62179;SDS011;48172;53.374;10.722;2022-11-15T12:00:21;128.07;;;93.35;;
62179;SDS011;48172;53.374;10.722;2022-11-15T12:10:41;121.63;;;91.15;;
62179;SDS011;48172;53.374;10.722;2022-11-15T12:13:15;116.40;;;87.50;;
62179;SDS011;48172;53.374;10.722;2022-11-15T12:18:28;111.88;;;83.32;;
62179;SDS011;48172;53.374;10.722;2022-11-15T12:20:57;115.50;;;84.45;;
62179;SDS011;48172;53.374;10.722;2022-11-15T12:23:30;112.18;;;84.03;;
62179;SDS011;48172;53.374;10.722;2022-11-15T12:26:08;109.80;;;81.88;;
62179;SDS011;48172;53.374;10.722;2022-11-15T12:28:44;105.65;;;79.68;;
62179;SDS011;48172;53.374;10.722;2022-11-15T12:31:43;107.90;;;80.20;;
62179;SDS011;48172;53.374;10.722;2022-11-15T12:36:47;101.60;;;78.20;;
62179;SDS011;48172;53.374;10.722;2022-11-15T12:39:16;101.82;;;77.22;;
62179;SDS011;48172;53.374;10.722;2022-11-15T13:02:25;87.82;;;68.60;;
62179;SDS011;48172;53.374;10.722;2022-11-15T13:13:03;84.78;;;65.47;;
62179;SDS011;48172;53.374;10.722;2022-11-15T13:15:38;86.05;;;65.82;;
62179;SDS011;48172;53.374;10.722;2022-11-15T13:18:40;84.90;;;64.18;;
62179;SDS011;48172;53.374;10.722;2022-11-15T13:21:19;78.63;;;62.42;;
62179;SDS011;48172;53.374;10.722;2022-11-15T13:24:11;82.65;;;61.33;;
62179;SDS011;48172;53.374;10.722;2022-11-15T13:26:39;74.97;;;58.03;;
62179;SDS011;48172;53.374;10.722;2022-11-15T13:29:14;77.55;;;61.72;;
62179;SDS011;48172;53.374;10.722;2022-11-15T13:31:42;74.82;;;59.42;;
62179;SDS011;48172;53.374;10.722;2022-11-15T13:34:23;75.80;;;58.50;;
62179;SDS011;48172;53.374;10.722;2022-11-15T13:39:50;75.15;;;57.10;;
62179;SDS011;48172;53.374;10.722;2022-11-15T13:42:17;72.68;;;56.10;;
62179;SDS011;48172;53.374;10.722;2022-11-15T13:44:59;73.40;;;57.25;;
62179;SDS011;48172;53.374;10.722;2022-11-15T13:47:27;71.80;;;56.05;;
62179;SDS011;48172;53.374;10.722;2022-11-15T13:49:59;70.53;;;53.80;;
62179;SDS011;48172;53.374;10.722;2022-11-15T13:52:28;68.47;;;52.78;;
62179;SDS011;48172;53.374;10.722;2022-11-15T13:55:01;72.18;;;54.75;;
62179;SDS011;48172;53.374;10.722;2022-11-15T14:00:32;66.95;;;52.72;;
62179;SDS011;48172;53.374;10.722;2022-11-15T14:03:07;67.78;;;50.72;;
62179;SDS011;48172;53.374;10.722;2022-11-15T14:05:41;63.90;;;49.75;;
62179;SDS011;48172;53.374;10.722;2022-11-15T14:08:22;64.38;;;50.10;;
62179;SDS011;48172;53.374;10.722;2022-11-15T14:11:05;61.22;;;49.65;;
62179;SDS011;48172;53.374;10.722;2022-11-15T14:13:39;62.67;;;49.60;;
62179;SDS011;48172;53.374;10.722;2022-11-15T14:16:12;60.95;;;49.08;;
62179;SDS011;48172;53.374;10.722;2022-11-15T14:18:47;60.22;;;48.53;;
62179;SDS011;48172;53.374;10.722;2022-11-15T14:21:15;57.60;;;45.75;;
62179;SDS011;48172;53.374;10.722;2022-11-15T14:23:43;58.05;;;47.63;;
62179;SDS011;48172;53.374;10.722;2022-11-15T14:26:29;55.17;;;45.88;;
62179;SDS011;48172;53.374;10.722;2022-11-15T14:29:21;57.38;;;45.58;;
62179;SDS011;48172;53.374;10.722;2022-11-15T14:31:51;55.53;;;44.05;;
62179;SDS011;48172;53.374;10.722;2022-11-15T14:34:18;54.67;;;44.42;;
62179;SDS011;48172;53.374;10.722;2022-11-15T14:36:47;52.40;;;44.78;;
62179;SDS011;48172;53.374;10.722;2022-11-15T14:39:14;53.67;;;42.85;;
62179;SDS011;48172;53.374;10.722;2022-11-15T14:41:41;53.92;;;43.53;;
62179;SDS011;48172;53.374;10.722;2022-11-15T14:44:09;53.58;;;43.70;;
62179;SDS011;48172;53.374;10.722;2022-11-15T14:46:37;53.72;;;43.30;;
62179;SDS011;48172;53.374;10.722;2022-11-15T14:49:03;51.45;;;40.80;;
62179;SDS011;48172;53.374;10.722;2022-11-15T14:51:30;50.15;;;40.70;;
62179;SDS011;48172;53.374;10.722;2022-11-15T14:53:58;49.58;;;41.40;;
62179;SDS011;48172;53.374;10.722;2022-11-15T14:56:25;50.33;;;40.63;;
62179;SDS011;48172;53.374;10.722;2022-11-15T14:58:52;48.78;;;39.53;;
62179;SDS011;48172;53.374;10.722;2022-11-15T15:01:19;49.63;;;39.00;;
62179;SDS011;48172;53.374;10.722;2022-11-15T15:03:46;47.30;;;39.22;;
62179;SDS011;48172;53.374;10.722;2022-11-15T15:06:13;48.13;;;39.58;;
62179;SDS011;48172;53.374;10.722;2022-11-15T15:08:44;46.80;;;38.75;;
62179;SDS011;48172;53.374;10.722;2022-11-15T15:11:16;45.90;;;37.28;;
62179;SDS011;48172;53.374;10.722;2022-11-15T15:13:46;47.10;;;38.10;;
62179;SDS011;48172;53.374;10.722;2022-11-15T15:16:13;44.17;;;37.13;;
62179;SDS011;48172;53.374;10.722;2022-11-15T15:18:40;44.42;;;36.30;;
62179;SDS011;48172;53.374;10.722;2022-11-15T15:21:25;45.40;;;37.17;;
62179;SDS011;48172;53.374;10.722;2022-11-15T15:24:02;44.67;;;35.80;;
62179;SDS011;48172;53.374;10.722;2022-11-15T15:26:29;42.17;;;35.58;;
62179;SDS011;48172;53.374;10.722;2022-11-15T15:28:56;44.72;;;36.40;;
62179;SDS011;48172;53.374;10.722;2022-11-15T15:31:22;41.88;;;34.28;;
62179;SDS011;48172;53.374;10.722;2022-11-15T15:33:49;39.88;;;33.17;;
62179;SDS011;48172;53.374;10.722;2022-11-15T15:36:17;41.72;;;34.00;;
62179;SDS011;48172;53.374;10.722;2022-11-15T15:38:44;41.13;;;33.28;;
62179;SDS011;48172;53.374;10.722;2022-11-15T15:41:16;38.42;;;32.67;;
62179;SDS011;48172;53.374;10.722;2022-11-15T15:43:43;40.10;;;33.83;;
62179;SDS011;48172;53.374;10.722;2022-11-15T15:46:19;38.92;;;32.47;;
62179;SDS011;48172;53.374;10.722;2022-11-15T15:48:46;35.83;;;30.98;;
62179;SDS011;48172;53.374;10.722;2022-11-15T15:51:13;35.90;;;31.77;;
62179;SDS011;48172;53.374;10.722;2022-11-15T15:53:46;38.10;;;32.60;;
62179;SDS011;48172;53.374;10.722;2022-11-15T15:56:13;36.38;;;30.17;;
62179;SDS011;48172;53.374;10.722;2022-11-15T15:58:40;36.90;;;30.60;;
62179;SDS011;48172;53.374;10.722;2022-11-15T16:01:06;33.75;;;29.08;;
62179;SDS011;48172;53.374;10.722;2022-11-15T16:03:33;34.85;;;29.50;;
62179;SDS011;48172;53.374;10.722;2022-11-15T16:06:00;35.15;;;29.13;;
62179;SDS011;48172;53.374;10.722;2022-11-15T16:08:27;35.63;;;28.92;;
62179;SDS011;48172;53.374;10.722;2022-11-15T16:11:15;32.47;;;27.92;;
62179;SDS011;48172;53.374;10.722;2022-11-15T16:13:42;33.28;;;27.92;;
62179;SDS011;48172;53.374;10.722;2022-11-15T16:16:09;31.08;;;27.70;;
62179;SDS011;48172;53.374;10.722;2022-11-15T16:18:39;33.00;;;27.98;;
62179;SDS011;48172;53.374;10.722;2022-11-15T16:21:05;34.58;;;27.75;;
62179;SDS011;48172;53.374;10.722;2022-11-15T16:23:33;30.65;;;26.33;;
62179;SDS011;48172;53.374;10.722;2022-11-15T16:26:00;34.80;;;27.50;;
62179;SDS011;48172;53.374;10.722;2022-11-15T16:28:29;29.75;;;26.10;;
62179;SDS011;48172;53.374;10.722;2022-11-15T16:31:02;29.33;;;25.60;;
62179;SDS011;48172;53.374;10.722;2022-11-15T16:33:36;31.20;;;25.52;;
62179;SDS011;48172;53.374;10.722;2022-11-15T16:36:04;30.48;;;25.92;;
62179;SDS011;48172;53.374;10.722;2022-11-15T16:38:32;29.35;;;25.63;;
62179;SDS011;48172;53.374;10.722;2022-11-15T16:41:00;30.20;;;25.55;;
62179;SDS011;48172;53.374;10.722;2022-11-15T16:43:27;30.60;;;25.63;;
62179;SDS011;48172;53.374;10.722;2022-11-15T16:45:53;28.35;;;25.17;;
62179;SDS011;48172;53.374;10.722;2022-11-15T16:48:24;27.90;;;24.67;;
62179;SDS011;48172;53.374;10.722;2022-11-15T16:50:58;30.00;;;24.98;;
62179;SDS011;48172;53.374;10.722;2022-11-15T16:55:53;26.98;;;22.17;;
62179;SDS011;48172;53.374;10.722;2022-11-15T16:58:20;26.30;;;22.23;;
62179;SDS011;48172;53.374;10.722;2022-11-15T17:00:53;26.45;;;23.05;;
62179;SDS011;48172;53.374;10.722;2022-11-15T17:03:21;25.95;;;22.67;;
62179;SDS011;48172;53.374;10.722;2022-11-15T17:05:50;28.08;;;22.75;;
62179;SDS011;48172;53.374;10.722;2022-11-15T17:08:17;25.35;;;21.38;;
62179;SDS011;48172;53.374;10.722;2022-11-15T17:10:46;24.92;;;22.23;;
62179;SDS011;48172;53.374;10.722;2022-11-15T17:13:12;25.52;;;22.25;;
62179;SDS011;48172;53.374;10.722;2022-11-15T17:15:39;26.50;;;22.00;;
62179;SDS011;48172;53.374;10.722;2022-11-15T17:18:08;25.58;;;21.25;;
62179;SDS011;48172;53.374;10.722;2022-11-15T17:20:37;23.75;;;20.52;;